Time;durP1;ratioP1;P1;durP2;ratioP2;P2;SDS_P1;SDS_P2;PMS_P1;PMS_P2;Temp;Humidity;BMP_temperature;BMP_pressure;BME280_temperature;BME280_humidity;BME280_pressure;Samples;Min_cycle;Max_cycle;Signal;HPM_P1;HPM_P2
2022/09/07 00:01:32;;;;;;;1.70;1.08;;;26.20;53.60;;;;;;5031609;28;20101;-66
2022/09/07 00:03:58;;;;;;;1.65;1.13;;;26.20;53.60;;;;;;5032320;28;20092;-66
2022/09/07 00:06:23;;;;;;;1.75;1.02;;;26.20;53.60;;;;;;5032496;28;20030;-68
2022/09/07 00:08:49;;;;;;;1.77;1.00;;;26.20;53.60;;;;;;5030731;28;20075;-67
2022/09/07 00:11:17;;;;;;;1.05;0.88;;;26.20;53.60;;;;;;5032028;28;20481;-67
2022/09/07 00:13:45;;;;;;;1.90;1.07;;;26.20;53.60;;;;;;5030178;28;20480;-67
2022/09/07 00:16:20;;;;;;;1.65;0.90;;;26.20;53.60;;;;;;5032022;28;20036;-68
2022/09/07 00:18:46;;;;;;;1.15;1.00;;;26.20;53.60;;;;;;5031845;28;20127;-67
2022/09/07 00:21:13;;;;;;;1.63;0.90;;;26.20;53.60;;;;;;5031857;28;20116;-68
2022/09/07 00:23:39;;;;;;;1.33;0.98;;;26.20;53.60;;;;;;5031979;28;20399;-68
2022/09/07 00:26:17;;;;;;;2.20;1.00;;;26.20;53.60;;;;;;5031705;28;20041;-67
2022/09/07 00:28:43;;;;;;;1.50;1.00;;;26.20;53.60;;;;;;5031843;28;20115;-66
2022/09/07 00:31:12;;;;;;;1.20;0.90;;;26.20;54.10;;;;;;5030669;28;20608;-67
2022/09/07 00:33:38;;;;;;;1.27;0.90;;;26.20;53.60;;;;;;5031406;28;20425;-68
2022/09/07 00:36:04;;;;;;;1.50;0.98;;;26.20;53.60;;;;;;5031599;28;20254;-67
2022/09/07 00:38:29;;;;;;;1.25;0.93;;;26.20;53.60;;;;;;5031521;28;20036;-67
2022/09/07 00:40:55;;;;;;;1.63;1.10;;;26.20;53.60;;;;;;5031475;28;20326;-65
2022/09/07 00:43:33;;;;;;;1.88;1.10;;;26.10;53.50;;;;;;5031357;28;20029;-66
2022/09/07 00:45:59;;;;;;;2.80;0.98;;;26.10;53.50;;;;;;5030642;28;20048;-67
2022/09/07 00:48:43;;;;;;;1.65;1.10;;;26.10;53.60;;;;;;5031479;28;20338;-66
2022/09/07 00:51:13;;;;;;;1.85;1.05;;;26.10;53.50;;;;;;5031429;28;20031;-68
2022/09/07 00:53:45;;;;;;;1.73;1.13;;;26.10;53.60;;;;;;5031249;28;20037;-68
2022/09/07 00:56:11;;;;;;;1.75;1.23;;;26.10;53.60;;;;;;5029968;28;20025;-68
2022/09/07 00:58:40;;;;;;;1.15;0.95;;;26.10;53.60;;;;;;5031331;28;20491;-68
2022/09/07 01:01:07;;;;;;;1.00;0.90;;;26.10;53.60;;;;;;5030618;28;20421;-68
2022/09/07 01:03:46;;;;;;;1.30;1.00;;;26.10;53.60;;;;;;5031105;28;20112;-67
2022/09/07 01:06:36;;;;;;;1.05;0.95;;;26.10;53.50;;;;;;5030987;28;20499;-66
2022/09/07 01:09:12;;;;;;;2.10;0.90;;;26.10;53.50;;;;;;5030754;28;20025;-67
2022/09/07 01:11:38;;;;;;;1.60;1.10;;;26.10;53.50;;;;;;5029675;28;20045;-67
2022/09/07 01:14:07;;;;;;;1.55;1.02;;;26.10;53.50;;;;;;5030838;28;20045;-68
2022/09/07 01:16:48;;;;;;;1.10;0.88;;;26.10;53.50;;;;;;5030961;28;20032;-68
2022/09/07 01:19:20;;;;;;;1.85;1.17;;;26.10;53.60;;;;;;5030868;28;20485;-68
2022/09/07 01:22:32;;;;;;;1.63;1.10;;;26.10;53.50;;;;;;5030542;28;20025;-67
2022/09/07 01:25:07;;;;;;;2.08;1.08;;;26.10;53.60;;;;;;4923204;29;20446;-66
2022/09/07 01:27:32;;;;;;;1.00;0.90;;;26.10;53.50;;;;;;5022494;28;20038;-66
2022/09/07 01:30:02;;;;;;;1.10;0.93;;;26.10;53.60;;;;;;5030984;28;20504;-67
2022/09/07 01:33:03;;;;;;;1.38;0.90;;;26.10;53.60;;;;;;5030154;28;20401;-67
2022/09/07 01:35:53;;;;;;;1.65;1.00;;;26.00;53.60;;;;;;5030386;28;20049;-67
2022/09/07 01:38:30;;;;;;;;;;;26.00;53.50;;;;;;5031230;28;20030;-66
2022/09/07 01:41:14;;;;;;;1.20;0.90;;;26.00;53.50;;;;;;5029616;28;19917;-67
2022/09/07 01:43:51;;;;;;;1.00;0.80;;;26.10;53.60;;;;;;5033284;28;20056;-66
2022/09/07 01:46:42;;;;;;;1.23;1.00;;;26.00;53.50;;;;;;5033668;28;20029;-67
2022/09/07 01:49:34;;;;;;;1.35;1.00;;;26.00;53.50;;;;;;5033367;28;20113;-68
2022/09/07 01:52:25;;;;;;;1.10;0.90;;;26.00;53.50;;;;;;5034629;28;20032;-66
2022/09/07 01:54:58;;;;;;;1.83;1.00;;;26.00;53.50;;;;;;5033529;28;20416;-68
2022/09/07 01:57:38;;;;;;;0.75;0.73;;;26.00;53.50;;;;;;5016576;28;20607;-66
2022/09/07 02:00:04;;;;;;;1.60;1.00;;;26.00;53.50;;;;;;5033360;28;20376;-66
2022/09/07 02:02:37;;;;;;;1.73;0.93;;;26.00;53.50;;;;;;5033754;28;20091;-67
2022/09/07 02:05:06;;;;;;;1.95;1.00;;;26.00;53.50;;;;;;5033569;28;20025;-67
2022/09/07 02:07:43;;;;;;;1.40;1.00;;;26.00;53.50;;;;;;5034334;28;20516;-66
2022/09/07 02:10:49;;;;;;;1.42;0.85;;;26.00;53.50;;;;;;5033862;28;20048;-67
2022/09/07 02:13:17;;;;;;;1.23;0.90;;;26.00;53.50;;;;;;4924462;29;20048;-67
2022/09/07 02:16:10;;;;;;;1.45;0.90;;;26.00;53.50;;;;;;5015489;28;20392;-67
2022/09/07 02:18:43;;;;;;;2.30;0.90;;;26.00;53.50;;;;;;5033439;28;20037;-67
2022/09/07 02:21:09;;;;;;;1.58;1.00;;;26.00;53.60;;;;;;5032157;28;20523;-67
2022/09/07 02:23:45;;;;;;;1.13;0.90;;;26.00;53.50;;;;;;5034004;28;20030;-68
2022/09/07 02:26:18;;;;;;;0.90;0.77;;;26.00;53.50;;;;;;5033560;28;20536;-67
2022/09/07 02:28:44;;;;;;;0.90;0.80;;;26.00;53.50;;;;;;5033979;28;20048;-66
2022/09/07 02:31:10;;;;;;;1.20;0.90;;;25.90;53.50;;;;;;5033434;28;20449;-68
2022/09/07 02:33:35;;;;;;;1.38;1.00;;;25.90;53.50;;;;;;5033229;28;20433;-66
2022/09/07 02:36:03;;;;;;;1.65;1.00;;;26.00;53.50;;;;;;5033892;28;20025;-66
2022/09/07 02:38:29;;;;;;;1.23;1.00;;;25.90;53.50;;;;;;5006757;28;20112;-67
2022/09/07 02:40:58;;;;;;;1.27;0.95;;;25.90;53.50;;;;;;5033742;28;20428;-68
2022/09/07 02:43:25;;;;;;;1.00;0.90;;;25.90;53.50;;;;;;5033125;28;20032;-66
2022/09/07 02:46:15;;;;;;;1.17;1.00;;;25.90;53.50;;;;;;5033678;28;20041;-67
2022/09/07 02:49:07;;;;;;;1.92;1.00;;;25.90;53.50;;;;;;5031615;28;20079;-68
2022/09/07 02:51:54;;;;;;;1.35;1.02;;;25.90;53.50;;;;;;5031768;28;20045;-66
2022/09/07 02:54:43;;;;;;;1.20;0.85;;;25.90;53.50;;;;;;5032876;28;20087;-67
2022/09/07 02:57:32;;;;;;;0.77;0.77;;;25.90;53.50;;;;;;5031145;28;20037;-68
2022/09/07 03:00:18;;;;;;;1.15;0.90;;;25.90;53.50;;;;;;5031868;28;20109;-66
2022/09/07 03:02:58;;;;;;;1.42;1.00;;;25.90;54.00;;;;;;5051092;28;20033;-68
2022/09/07 03:05:44;;;;;;;1.10;0.95;;;25.90;53.50;;;;;;5053230;28;20024;-67
2022/09/07 03:08:23;;;;;;;1.45;1.13;;;25.90;53.40;;;;;;5052188;28;20078;-67
2022/09/07 03:10:50;;;;;;;1.35;0.90;;;25.90;53.50;;;;;;5052587;28;20063;-68
2022/09/07 03:13:24;;;;;;;1.30;0.90;;;25.90;53.50;;;;;;5053044;28;20036;-66
2022/09/07 03:15:50;;;;;;;1.10;0.90;;;25.90;53.50;;;;;;5052962;28;20032;-65
2022/09/07 03:18:16;;;;;;;1.17;0.90;;;25.90;53.40;;;;;;5052916;28;20543;-66
2022/09/07 03:20:41;;;;;;;1.35;0.90;;;25.90;53.40;;;;;;5053048;28;20036;-68
2022/09/07 03:23:07;;;;;;;1.55;1.00;;;25.90;53.40;;;;;;5053007;28;20028;-67
2022/09/07 03:25:32;;;;;;;1.05;0.80;;;25.80;53.40;;;;;;5050981;28;20070;-67
2022/09/07 03:27:58;;;;;;;1.08;0.88;;;25.90;53.40;;;;;;5051777;28;20021;-67
2022/09/07 03:30:24;;;;;;;1.13;0.80;;;25.90;53.40;;;;;;5051924;28;20079;-67
2022/09/07 03:32:49;;;;;;;1.10;0.90;;;25.90;54.00;;;;;;5052298;28;20041;-68
2022/09/07 03:35:16;;;;;;;0.80;0.80;;;25.90;53.40;;;;;;5052107;28;20365;-67
2022/09/07 03:37:41;;;;;;;1.10;0.88;;;25.80;53.40;;;;;;5051130;28;20151;-68
2022/09/07 03:40:12;;;;;;;1.15;0.90;;;25.90;53.40;;;;;;5051835;28;20199;-67
2022/09/07 03:42:38;;;;;;;1.65;0.80;;;25.90;53.40;;;;;;5052612;28;20025;-66
2022/09/07 03:45:05;;;;;;;1.15;0.90;;;25.90;53.90;;;;;;5052122;28;20021;-67
2022/09/07 03:47:33;;;;;;;1.00;0.80;;;25.80;53.40;;;;;;5051369;28;20488;-66
2022/09/07 03:49:59;;;;;;;1.20;0.90;;;25.90;53.40;;;;;;5051928;28;20111;-66
2022/09/07 03:52:24;;;;;;;1.00;0.80;;;25.80;53.40;;;;;;5052523;28;20527;-67
2022/09/07 03:54:50;;;;;;;1.50;0.90;;;25.80;53.30;;;;;;5052366;28;20040;-67
2022/09/07 03:57:15;;;;;;;1.50;1.00;;;25.80;53.40;;;;;;5052256;28;20090;-67
2022/09/07 03:59:41;;;;;;;1.33;0.90;;;25.80;53.30;;;;;;5052002;28;20048;-68
2022/09/07 04:02:07;;;;;;;2.00;0.90;;;25.80;53.30;;;;;;5051577;28;20040;-66
2022/09/07 04:04:32;;;;;;;1.00;0.85;;;25.80;53.30;;;;;;5052045;28;20476;-66
2022/09/07 04:06:58;;;;;;;1.20;0.80;;;25.80;53.30;;;;;;5051116;28;20033;-66
2022/09/07 04:09:24;;;;;;;1.17;0.82;;;25.80;53.40;;;;;;5051927;28;20364;-66
2022/09/07 04:11:49;;;;;;;1.33;0.90;;;25.80;53.40;;;;;;5051976;28;20079;-66
2022/09/07 04:14:15;;;;;;;1.13;0.90;;;25.80;53.40;;;;;;5051754;28;20052;-67
2022/09/07 04:16:41;;;;;;;1.20;0.90;;;25.80;53.30;;;;;;5051914;28;20381;-67
2022/09/07 04:19:06;;;;;;;1.15;0.90;;;25.80;53.30;;;;;;5051833;28;20025;-66
2022/09/07 04:21:33;;;;;;;0.82;0.80;;;25.80;53.30;;;;;;5051341;28;20037;-66
2022/09/07 04:23:58;;;;;;;1.15;0.90;;;25.80;53.30;;;;;;5051870;28;20116;-67
2022/09/07 04:26:30;;;;;;;1.50;0.85;;;25.80;53.40;;;;;;5051707;28;20025;-68
2022/09/07 04:28:56;;;;;;;0.80;0.80;;;25.80;53.40;;;;;;5051861;28;20033;-68
2022/09/07 04:31:23;;;;;;;0.85;0.80;;;25.80;53.40;;;;;;5051170;28;20099;-67
2022/09/07 04:33:49;;;;;;;1.00;0.90;;;25.80;53.40;;;;;;5051187;28;20494;-67
2022/09/07 04:36:16;;;;;;;1.10;0.90;;;25.80;53.30;;;;;;5051816;28;20495;-70
2022/09/07 04:38:42;;;;;;;1.05;0.90;;;25.80;53.90;;;;;;5051628;28;20024;-68
2022/09/07 04:41:18;;;;;;;0.98;0.90;;;25.80;53.40;;;;;;5051286;28;20025;-67
2022/09/07 04:43:45;;;;;;;1.00;0.90;;;25.80;53.40;;;;;;5051469;28;20107;-68
2022/09/07 04:46:18;;;;;;;1.38;1.05;;;25.80;53.40;;;;;;5051256;28;20074;-68
2022/09/07 04:48:47;;;;;;;1.48;0.80;;;25.80;53.40;;;;;;5051291;28;20158;-67
2022/09/07 04:51:13;;;;;;;;;;;25.80;53.50;;;;;;5034021;28;20456;-67
2022/09/07 04:53:39;;;;;;;1.80;0.90;;;25.70;53.30;;;;;;5051187;28;19905;-69
2022/09/07 04:56:05;;;;;;;0.93;0.80;;;25.70;53.30;;;;;;5051172;28;20087;-67
2022/09/07 04:58:30;;;;;;;0.80;0.80;;;25.70;53.30;;;;;;5050578;28;20025;-66
2022/09/07 05:01:04;;;;;;;1.52;1.00;;;25.80;53.40;;;;;;5050584;28;20349;-66
2022/09/07 05:03:30;;;;;;;1.30;0.98;;;25.70;53.30;;;;;;5050320;28;20044;-67
2022/09/07 05:05:59;;;;;;;1.00;0.90;;;25.70;53.30;;;;;;5050894;28;20040;-66
2022/09/07 05:08:24;;;;;;;1.35;0.95;;;25.70;53.30;;;;;;5049731;28;20037;-67
2022/09/07 05:10:54;;;;;;;1.33;1.00;;;25.70;53.90;;;;;;5050948;28;20641;-67
2022/09/07 05:13:20;;;;;;;0.82;0.80;;;25.70;53.80;;;;;;5050641;28;20041;-66
2022/09/07 05:15:45;;;;;;;0.88;0.80;;;25.70;53.40;;;;;;5050876;28;20025;-66
2022/09/07 05:18:12;;;;;;;1.20;1.00;;;25.70;53.30;;;;;;5050497;28;20078;-66
2022/09/07 05:20:39;;;;;;;0.98;0.80;;;25.70;53.30;;;;;;5050720;28;20046;-66
2022/09/07 05:23:04;;;;;;;0.70;0.70;;;25.70;53.30;;;;;;5050779;28;20039;-66
2022/09/07 05:25:30;;;;;;;1.35;0.90;;;25.70;53.30;;;;;;5050916;28;20375;-67
2022/09/07 05:27:56;;;;;;;1.02;0.90;;;25.70;53.30;;;;;;5050682;28;20078;-66
2022/09/07 05:30:21;;;;;;;1.08;0.75;;;25.70;53.30;;;;;;5050348;28;20064;-66
2022/09/07 05:32:47;;;;;;;0.90;0.80;;;25.70;53.30;;;;;;5050217;28;20415;-66
2022/09/07 05:35:13;;;;;;;1.58;0.90;;;25.70;53.30;;;;;;5050768;28;20361;-66
2022/09/07 05:37:39;;;;;;;1.20;0.90;;;25.70;53.40;;;;;;5050786;28;20033;-66
2022/09/07 05:40:06;;;;;;;0.90;0.77;;;25.70;53.30;;;;;;5050655;28;20040;-66
2022/09/07 05:42:31;;;;;;;1.00;0.80;;;25.70;53.40;;;;;;5050683;28;20533;-66
2022/09/07 05:44:57;;;;;;;1.15;0.90;;;25.70;53.30;;;;;;5050818;28;20033;-67
2022/09/07 05:47:23;;;;;;;1.83;1.00;;;25.70;53.30;;;;;;5050633;28;20104;-66
2022/09/07 05:49:49;;;;;;;1.38;1.00;;;25.70;53.30;;;;;;5050678;28;20025;-66
2022/09/07 05:52:14;;;;;;;0.85;0.75;;;25.70;53.30;;;;;;5050948;28;20524;-67
2022/09/07 05:54:40;;;;;;;1.02;0.80;;;25.70;53.30;;;;;;5050593;28;20504;-66
2022/09/07 05:57:06;;;;;;;0.88;0.77;;;25.70;53.30;;;;;;5053514;28;20025;-66
2022/09/07 05:59:32;;;;;;;0.95;0.80;;;25.70;53.50;;;;;;5060564;28;20025;-65
2022/09/07 06:01:58;;;;;;;1.30;0.90;;;25.70;53.50;;;;;;5059176;28;20124;-66
2022/09/07 06:04:23;;;;;;;2.15;0.90;;;25.70;53.40;;;;;;5040101;28;20529;-66
2022/09/07 06:06:49;;;;;;;1.23;0.90;;;25.80;53.40;;;;;;5051660;28;20074;-65
2022/09/07 06:09:15;;;;;;;1.00;0.90;;;25.80;53.30;;;;;;5051615;28;20037;-67
2022/09/07 06:11:40;;;;;;;1.00;0.80;;;25.80;53.30;;;;;;5052643;28;20039;-67
2022/09/07 06:14:06;;;;;;;1.30;0.90;;;25.80;53.20;;;;;;5058974;28;20067;-67
2022/09/07 06:16:34;;;;;;;1.80;1.00;;;25.80;53.10;;;;;;5060059;28;20083;-67
2022/09/07 06:19:06;;;;;;;1.27;1.00;;;25.90;53.10;;;;;;5059388;28;20037;-67
2022/09/07 06:21:36;;;;;;;1.00;0.80;;;25.90;53.10;;;;;;5059996;28;20179;-67
2022/09/07 06:24:03;;;;;;;0.98;0.80;;;26.00;53.10;;;;;;5058540;28;20076;-66
2022/09/07 06:26:28;;;;;;;1.75;0.82;;;26.00;53.00;;;;;;5052398;28;20021;-66
2022/09/07 06:28:54;;;;;;;0.85;0.75;;;26.00;52.90;;;;;;5050271;28;20043;-66
2022/09/07 06:31:21;;;;;;;1.13;0.85;;;26.00;52.80;;;;;;5053095;28;20029;-66
2022/09/07 06:33:48;;;;;;;1.40;0.90;;;26.10;52.80;;;;;;5053857;28;20096;-66
2022/09/07 06:36:16;;;;;;;0.98;0.80;;;26.10;52.70;;;;;;5053739;28;20066;-67
2022/09/07 06:38:42;;;;;;;1.17;1.00;;;26.20;52.70;;;;;;5053802;28;20108;-67
2022/09/07 06:41:12;;;;;;;1.60;1.10;;;26.20;52.60;;;;;;5053501;28;20033;-66
2022/09/07 06:43:38;;;;;;;1.50;1.00;;;26.20;52.60;;;;;;5052676;28;20472;-66
2022/09/07 06:46:05;;;;;;;0.90;0.80;;;26.20;52.50;;;;;;5053658;28;20029;-66
2022/09/07 06:48:30;;;;;;;1.48;1.00;;;26.30;52.50;;;;;;5053581;28;20029;-67
2022/09/07 06:51:17;;;;;;;1.20;1.10;;;26.30;52.50;;;;;;5053329;28;20040;-66
2022/09/07 06:53:45;;;;;;;1.33;0.95;;;26.30;52.40;;;;;;5053377;28;20017;-66
2022/09/07 06:56:13;;;;;;;1.40;1.10;;;26.30;52.40;;;;;;5053288;28;20032;-65
2022/09/07 06:58:39;;;;;;;1.45;1.20;;;26.30;52.40;;;;;;5053290;28;20063;-66
2022/09/07 07:01:16;;;;;;;1.83;1.20;;;26.30;52.40;;;;;;5052766;28;20036;-65
2022/09/07 07:03:42;;;;;;;1.05;0.85;;;26.40;52.50;;;;;;5035160;28;20029;-66
2022/09/07 07:06:09;;;;;;;1.30;1.00;;;26.40;52.40;;;;;;5052727;28;20553;-66
2022/09/07 07:08:35;;;;;;;1.38;1.05;;;26.40;52.40;;;;;;5052064;28;20039;-66
2022/09/07 07:11:07;;;;;;;1.35;0.90;;;26.40;52.90;;;;;;5052240;28;20854;-66
2022/09/07 07:13:33;;;;;;;1.27;0.90;;;26.50;52.40;;;;;;5050560;28;20076;-65
2022/09/07 07:16:12;;;;;;;1.10;0.90;;;26.50;52.40;;;;;;5052716;28;20025;-66
2022/09/07 07:18:38;;;;;;;1.35;1.00;;;26.50;52.40;;;;;;5052434;28;20035;-66
2022/09/07 07:21:06;;;;;;;1.92;1.00;;;26.50;52.40;;;;;;5051955;28;20127;-67
2022/09/07 07:23:33;;;;;;;1.52;0.90;;;26.50;52.30;;;;;;5052319;28;20036;-66
2022/09/07 07:26:08;;;;;;;1.25;1.00;;;26.60;52.30;;;;;;5052766;28;20481;-66
2022/09/07 07:28:34;;;;;;;1.30;1.00;;;26.60;52.40;;;;;;5052702;28;20037;-66
2022/09/07 07:31:02;;;;;;;2.55;1.00;;;26.60;52.30;;;;;;5051818;28;20500;-66
2022/09/07 07:33:30;;;;;;;1.42;1.00;;;26.60;52.40;;;;;;5052661;28;20028;-66
2022/09/07 07:36:10;;;;;;;1.20;1.00;;;26.60;52.30;;;;;;5052586;28;20029;-66
2022/09/07 07:38:36;;;;;;;1.70;1.00;;;26.60;52.30;;;;;;5051663;28;20052;-66
2022/09/07 07:41:01;;;;;;;1.40;1.05;;;26.70;52.30;;;;;;5051985;28;20053;-66
2022/09/07 07:43:27;;;;;;;1.42;1.10;;;26.70;52.30;;;;;;5051399;28;20036;-67
2022/09/07 07:45:54;;;;;;;1.45;1.05;;;26.70;52.20;;;;;;5051707;28;20471;-65
2022/09/07 07:48:20;;;;;;;1.27;1.05;;;26.70;52.20;;;;;;5051686;28;20028;-65
2022/09/07 07:50:59;;;;;;;2.10;1.10;;;26.80;52.30;;;;;;5051298;28;20108;-66
2022/09/07 07:53:26;;;;;;;1.33;1.20;;;26.80;52.40;;;;;;5051510;28;20032;-67
2022/09/07 07:55:52;;;;;;;1.70;0.93;;;26.80;52.40;;;;;;5051644;28;20025;-66
2022/09/07 07:58:18;;;;;;;1.15;1.00;;;26.80;52.30;;;;;;5051253;28;20161;-67
2022/09/07 08:00:44;;;;;;;1.15;0.90;;;26.80;52.20;;;;;;5050504;28;20567;-66
2022/09/07 08:03:09;;;;;;;1.73;1.10;;;26.80;52.20;;;;;;5050894;28;20100;-66
2022/09/07 08:05:36;;;;;;;1.10;0.98;;;26.90;52.20;;;;;;5050753;28;20051;-66
2022/09/07 08:08:02;;;;;;;1.15;0.90;;;26.90;52.20;;;;;;5051432;28;20064;-65
2022/09/07 08:10:28;;;;;;;1.30;0.98;;;26.90;52.40;;;;;;5051323;28;20427;-66
2022/09/07 08:12:55;;;;;;;1.30;0.88;;;26.80;52.30;;;;;;5050823;28;20725;-65
2022/09/07 08:15:21;;;;;;;1.58;1.00;;;26.90;52.30;;;;;;5050258;28;20039;-65
2022/09/07 08:17:47;;;;;;;2.00;1.08;;;26.90;52.20;;;;;;5050885;28;20083;-65
2022/09/07 08:20:14;;;;;;;0.93;0.80;;;27.00;52.30;;;;;;5050484;28;20475;-66
2022/09/07 08:22:40;;;;;;;1.40;0.95;;;26.90;52.20;;;;;;5050968;28;20031;-66
2022/09/07 08:25:06;;;;;;;1.10;0.90;;;27.00;52.20;;;;;;5050789;28;20028;-65
2022/09/07 08:27:33;;;;;;;1.70;1.10;;;26.90;52.10;;;;;;5050511;28;20044;-67
2022/09/07 08:29:59;;;;;;;1.35;1.00;;;27.00;52.20;;;;;;5050871;28;20094;-66
2022/09/07 08:32:25;;;;;;;2.28;1.05;;;27.00;52.10;;;;;;5050666;28;20461;-66
2022/09/07 08:34:51;;;;;;;1.55;1.00;;;27.00;52.10;;;;;;5050489;28;20503;-67
2022/09/07 08:37:17;;;;;;;1.33;1.00;;;27.00;52.10;;;;;;5051106;28;20025;-66
2022/09/07 08:39:42;;;;;;;1.58;1.20;;;27.10;52.10;;;;;;5051126;28;20017;-66
2022/09/07 08:42:40;;;;;;;1.77;1.10;;;27.10;52.00;;;;;;5051077;28;20127;-66
2022/09/07 08:45:14;;;;;;;1.08;0.82;;;27.00;52.10;;;;;;5025178;28;20025;-66
2022/09/07 08:47:44;;;;;;;1.63;1.13;;;27.10;52.10;;;;;;5050606;28;20029;-66
2022/09/07 08:50:21;;;;;;;0.82;0.82;;;27.10;52.00;;;;;;5050536;28;20058;-67
2022/09/07 08:53:03;;;;;;;1.30;0.90;;;27.10;52.70;;;;;;5050180;28;20029;-66
2022/09/07 08:55:57;;;;;;;1.13;0.90;;;27.10;52.80;;;;;;5050190;28;20017;-66
2022/09/07 08:58:28;;;;;;;1.00;0.90;;;27.20;52.60;;;;;;5050848;28;20017;-66
2022/09/07 09:00:54;;;;;;;1.83;1.00;;;27.20;52.40;;;;;;5049059;28;20043;-67
2022/09/07 09:03:26;;;;;;;1.35;1.00;;;27.30;52.40;;;;;;5050646;28;20020;-67
2022/09/07 09:06:28;;;;;;;1.10;0.90;;;27.30;52.10;;;;;;5050069;28;20480;-66
2022/09/07 09:09:08;;;;;;;1.52;0.90;;;27.30;52.30;;;;;;5050477;28;20098;-66
2022/09/07 09:11:55;;;;;;;2.33;1.00;;;27.30;52.20;;;;;;5050301;28;20383;-67
2022/09/07 09:14:20;;;;;;;1.38;0.90;;;27.30;52.20;;;;;;5049913;28;20124;-65
2022/09/07 09:16:56;;;;;;;1.40;0.95;;;27.30;52.20;;;;;;5050674;28;20571;-66
2022/09/07 09:19:39;;;;;;;1.67;0.90;;;27.30;52.70;;;;;;5048403;28;20108;-67
2022/09/07 09:22:16;;;;;;;1.45;0.90;;;27.30;52.50;;;;;;5050173;28;20163;-65
2022/09/07 09:24:47;;;;;;;1.33;0.90;;;27.40;52.30;;;;;;5049807;28;20563;-67
2022/09/07 09:27:14;;;;;;;1.42;1.00;;;27.40;52.50;;;;;;5050497;28;20045;-67
2022/09/07 09:29:39;;;;;;;1.75;0.90;;;27.40;51.90;;;;;;5050531;28;20486;-67
2022/09/07 09:32:32;;;;;;;1.88;1.00;;;27.40;52.00;;;;;;5049966;28;20120;-66
2022/09/07 09:35:12;;;;;;;1.38;0.98;;;27.40;51.70;;;;;;5049516;28;20013;-67
2022/09/07 09:37:39;;;;;;;1.52;0.90;;;27.40;51.70;;;;;;5049558;28;20028;-68
2022/09/07 09:40:16;;;;;;;2.92;0.90;;;27.40;51.70;;;;;;5050429;28;20388;-67
2022/09/07 09:42:43;;;;;;;1.60;0.98;;;27.40;51.70;;;;;;5050486;28;20029;-67
2022/09/07 09:45:18;;;;;;;1.35;0.95;;;27.40;51.70;;;;;;5050483;28;20485;-67
2022/09/07 09:47:49;;;;;;;1.40;0.90;;;27.30;51.70;;;;;;5048632;28;20067;-68
2022/09/07 09:50:24;;;;;;;2.13;1.10;;;27.30;51.70;;;;;;5050385;28;20021;-67
2022/09/07 09:52:51;;;;;;;1.63;1.10;;;27.30;51.70;;;;;;5050342;28;20049;-65
2022/09/07 09:55:28;;;;;;;1.63;1.00;;;27.30;52.20;;;;;;5032530;28;20078;-66
2022/09/07 09:58:00;;;;;;;1.83;1.10;;;27.30;51.80;;;;;;5050351;28;20029;-67
2022/09/07 10:00:28;;;;;;;1.38;0.90;;;27.30;52.30;;;;;;5048722;28;20496;-67
2022/09/07 10:03:17;;;;;;;1.45;1.00;;;27.30;52.40;;;;;;5032333;28;20025;-67
2022/09/07 10:05:45;;;;;;;1.73;1.20;;;27.30;52.90;;;;;;5016556;28;20481;-66
2022/09/07 10:08:27;;;;;;;1.63;1.02;;;27.30;52.90;;;;;;5053359;28;20029;-66
2022/09/07 10:11:04;;;;;;;1.70;0.98;;;27.20;53.10;;;;;;5053149;28;20031;-67
2022/09/07 10:13:33;;;;;;;3.08;1.20;;;27.30;53.30;;;;;;5053739;28;20083;-67
2022/09/07 10:16:04;;;;;;;1.58;1.00;;;27.30;52.70;;;;;;5035946;28;20435;-66
2022/09/07 10:18:38;;;;;;;2.47;1.27;;;27.30;52.70;;;;;;5053963;28;20028;-67
2022/09/07 10:21:26;;;;;;;2.03;1.15;;;27.30;53.10;;;;;;5053745;28;20540;-66
2022/09/07 10:23:59;;;;;;;2.30;1.00;;;27.30;53.10;;;;;;5053387;28;20082;-65
2022/09/07 10:26:30;;;;;;;1.50;1.10;;;27.30;53.00;;;;;;5053097;28;20509;-67
2022/09/07 10:29:12;;;;;;;2.55;1.10;;;27.30;53.40;;;;;;5052362;28;20025;-66
2022/09/07 10:32:01;;;;;;;1.98;0.95;;;27.30;53.00;;;;;;5053055;28;20040;-66
2022/09/07 10:34:42;;;;;;;1.10;0.98;;;27.30;52.90;;;;;;5040356;28;20033;-66
2022/09/07 10:37:24;;;;;;;1.80;1.10;;;27.40;52.80;;;;;;5052683;28;20342;-67
2022/09/07 10:40:25;;;;;;;1.38;0.90;;;27.30;52.60;;;;;;5035191;28;20048;-67
2022/09/07 10:43:16;;;;;;;2.28;1.00;;;27.40;52.60;;;;;;4955435;28;20087;-66
2022/09/07 10:46:01;;;;;;;1.77;1.10;;;27.40;52.60;;;;;;5052286;28;20024;-67
2022/09/07 10:49:02;;;;;;;1.77;1.10;;;27.40;52.90;;;;;;5052489;28;20492;-66
2022/09/07 10:51:41;;;;;;;2.22;1.00;;;27.40;52.80;;;;;;5051992;28;20112;-67
2022/09/07 10:54:35;;;;;;;1.90;1.00;;;27.40;52.60;;;;;;5052559;28;20100;-66
2022/09/07 10:57:19;;;;;;;1.88;1.30;;;27.50;52.60;;;;;;5052377;28;20021;-66
2022/09/07 11:00:12;;;;;;;1.95;1.10;;;27.50;52.80;;;;;;5052289;28;20083;-65
2022/09/07 11:02:44;;;;;;;2.08;1.17;;;27.50;53.00;;;;;;5047985;28;20179;-65
2022/09/07 11:05:47;;;;;;;1.77;1.10;;;27.50;53.20;;;;;;5052497;28;20111;-67
2022/09/07 11:08:33;;;;;;;1.73;1.10;;;27.50;52.90;;;;;;5051498;28;20033;-66
2022/09/07 11:11:42;;;;;;;2.00;1.00;;;27.50;53.00;;;;;;5052403;28;20089;-67
2022/09/07 11:14:10;;;;;;;;;;;27.50;53.30;;;;;;5019662;28;20604;-66
2022/09/07 11:16:38;;;;;;;1.33;1.00;;;27.50;52.90;;;;;;5051615;28;20002;-67
2022/09/07 11:19:15;;;;;;;2.57;1.10;;;27.50;53.40;;;;;;5052015;28;20033;-67
2022/09/07 11:21:47;;;;;;;1.90;1.00;;;27.60;53.20;;;;;;5052572;28;20279;-65
2022/09/07 11:24:28;;;;;;;1.48;1.00;;;27.60;53.30;;;;;;5052147;28;20035;-64
2022/09/07 11:26:59;;;;;;;1.98;1.10;;;27.60;53.30;;;;;;5051445;28;20500;-64
2022/09/07 11:29:33;;;;;;;1.33;0.90;;;27.60;53.30;;;;;;5052335;28;20483;-67
2022/09/07 11:32:27;;;;;;;1.90;1.02;;;27.60;53.20;;;;;;5051221;28;20106;-65
2022/09/07 11:35:04;;;;;;;1.67;1.10;;;27.60;53.90;;;;;;5044359;28;20041;-66
2022/09/07 11:37:46;;;;;;;1.13;0.85;;;27.60;53.50;;;;;;5052618;28;20468;-66
2022/09/07 11:40:34;;;;;;;1.50;1.02;;;27.60;53.30;;;;;;5052349;28;20025;-65
2022/09/07 11:43:13;;;;;;;2.05;1.00;;;27.70;53.40;;;;;;5051839;28;20472;-65
2022/09/07 11:45:44;;;;;;;1.02;0.80;;;27.70;53.40;;;;;;5050604;28;20025;-66
2022/09/07 11:48:20;;;;;;;1.20;0.90;;;27.70;53.60;;;;;;5052110;28;20449;-66
2022/09/07 11:50:51;;;;;;;1.98;0.95;;;27.70;53.60;;;;;;5051538;28;20058;-65
2022/09/07 11:53:26;;;;;;;1.00;0.73;;;27.80;53.70;;;;;;5051848;28;20171;-66
2022/09/07 11:56:03;;;;;;;1.02;0.80;;;27.80;53.50;;;;;;5050798;28;20079;-65
2022/09/07 11:58:36;;;;;;;1.15;0.80;;;27.80;53.50;;;;;;5052125;28;20174;-65
2022/09/07 12:01:19;;;;;;;1.10;0.80;;;27.90;53.40;;;;;;5050897;28;20365;-66
2022/09/07 12:03:55;;;;;;;1.10;0.73;;;27.90;53.40;;;;;;5050913;28;20432;-65
2022/09/07 12:06:23;;;;;;;0.93;0.75;;;28.00;53.30;;;;;;5051703;28;20468;-65
2022/09/07 12:09:13;;;;;;;1.25;0.80;;;28.00;53.40;;;;;;5051123;28;20102;-66
2022/09/07 12:12:03;;;;;;;0.95;0.80;;;28.00;53.30;;;;;;5050701;28;20565;-62
2022/09/07 12:15:01;;;;;;;0.85;0.70;;;28.00;53.70;;;;;;5050733;28;20041;-65
2022/09/07 12:17:52;;;;;;;1.17;0.80;;;28.10;53.30;;;;;;5050121;28;20047;-66
2022/09/07 12:20:22;;;;;;;1.13;0.70;;;28.10;53.20;;;;;;5049260;28;20068;-65
2022/09/07 12:23:30;;;;;;;1.08;0.80;;;28.10;53.20;;;;;;5050964;28;20477;-65
2022/09/07 12:26:35;;;;;;;0.90;0.80;;;28.20;53.20;;;;;;4961198;28;20039;-65
2022/09/07 12:29:01;;;;;;;0.88;0.70;;;28.20;53.10;;;;;;5050520;28;20496;-65
2022/09/07 12:31:47;;;;;;;1.77;0.85;;;28.20;53.00;;;;;;5049833;28;20079;-65
2022/09/07 12:34:31;;;;;;;0.77;0.70;;;28.30;53.20;;;;;;5050015;28;20491;-66
2022/09/07 12:37:21;;;;;;;0.70;0.70;;;28.30;53.20;;;;;;5050515;28;20029;-65
2022/09/07 12:39:47;;;;;;;1.35;0.80;;;28.30;53.20;;;;;;5050478;28;20477;-66
2022/09/07 12:42:25;;;;;;;1.60;0.82;;;28.30;53.10;;;;;;5051018;28;20036;-66
2022/09/07 12:45:45;;;;;;;1.02;0.80;;;28.30;53.10;;;;;;5050082;28;20044;-65
2022/09/07 12:48:13;;;;;;;0.88;0.70;;;28.40;53.20;;;;;;5049913;28;20025;-65
2022/09/07 12:51:01;;;;;;;0.85;0.75;;;28.40;53.30;;;;;;5051147;28;20033;-65
2022/09/07 12:53:48;;;;;;;1.05;0.70;;;28.40;53.40;;;;;;5049839;28;20058;-65
2022/09/07 12:56:18;;;;;;;0.90;0.80;;;28.40;53.10;;;;;;5047847;28;20024;-66
2022/09/07 12:59:13;;;;;;;0.80;0.80;;;28.50;53.10;;;;;;5050097;28;20120;-65
2022/09/07 13:02:04;;;;;;;0.85;0.80;;;28.50;53.20;;;;;;5049066;28;20033;-64
2022/09/07 13:04:42;;;;;;;0.70;0.70;;;28.60;53.30;;;;;;5049604;28;20432;-66
2022/09/07 13:07:22;;;;;;;1.02;0.93;;;28.60;53.30;;;;;;5049587;28;20031;-64
2022/09/07 13:09:56;;;;;;;1.10;0.70;;;28.60;53.30;;;;;;5048500;28;20082;-65
2022/09/07 13:12:44;;;;;;;0.88;0.70;;;28.60;53.30;;;;;;5050326;28;20710;-67
2022/09/07 13:15:34;;;;;;;1.27;0.90;;;28.60;53.20;;;;;;5049652;28;20095;-67
2022/09/07 13:18:02;;;;;;;0.80;0.60;;;28.60;53.00;;;;;;5047907;28;20106;-66
2022/09/07 13:20:31;;;;;;;1.23;0.82;;;28.70;53.30;;;;;;5049588;28;20029;-65